NAY95NE GCXO-GCLP
Flight info
| Callsign | NAY95NE |
|---|---|
| Flight time | 0h 26m |
| Altitude | 14000 |
| Route | LALTO |
| Aircraft | AT76/M-SDFGIRY/S |
Departure
| Time | 2026-04-29 17:05 |
|---|---|
| Airport | Tenerife Norte-Ciudad de La Laguna Airport (GCXO) |
Arrival
| Time | 2026-04-29 17:31 |
|---|---|
| Airport | Gran Canaria Airport (GCLP) |
| Time | Latitude | Longitude | Altitude | Speed | Heading |
|---|---|---|---|---|---|
| 2026-04-29 16:41 | 28.48681 | -16.34664 | 2067 ft | 0 kts | 21° |
| 2026-04-29 17:00 | 28.48680 | -16.34664 | 2067 ft | 1 kts | 21° |
| 2026-04-29 17:00 | 28.48661 | -16.34672 | 2068 ft | 5 kts | 20° |
| 2026-04-29 17:01 | 28.48625 | -16.34688 | 2069 ft | 6 kts | 3° |
| 2026-04-29 17:01 | 28.48620 | -16.34693 | 2069 ft | 1 kts | 309° |
| 2026-04-29 17:01 | 28.48610 | -16.34725 | 2070 ft | 5 kts | 244° |
| 2026-04-29 17:01 | 28.48597 | -16.34755 | 2073 ft | 3 kts | 244° |
| 2026-04-29 17:02 | 28.48603 | -16.34831 | 2077 ft | 17 kts | 291° |
| 2026-04-29 17:02 | 28.48656 | -16.34987 | 2081 ft | 22 kts | 291° |
| 2026-04-29 17:02 | 28.48709 | -16.35139 | 2078 ft | 20 kts | 292° |
| 2026-04-29 17:02 | 28.48756 | -16.35284 | 2075 ft | 19 kts | 289° |
| 2026-04-29 17:03 | 28.48798 | -16.35426 | 2071 ft | 19 kts | 289° |
| 2026-04-29 17:03 | 28.48847 | -16.35561 | 2066 ft | 15 kts | 290° |
| 2026-04-29 17:03 | 28.48875 | -16.35675 | 2064 ft | 15 kts | 271° |
| 2026-04-29 17:03 | 28.48829 | -16.35752 | 2065 ft | 10 kts | 193° |
| 2026-04-29 17:04 | 28.48787 | -16.35710 | 2068 ft | 16 kts | 122° |
| 2026-04-29 17:04 | 28.48679 | -16.35397 | 2077 ft | 73 kts | 110° |
| 2026-04-29 17:04 | 28.48433 | -16.34659 | 2091 ft | 123 kts | 111° |
| 2026-04-29 17:04 | 28.48186 | -16.33746 | 2625 ft | 118 kts | 103° |
| 2026-04-29 17:05 | 28.47921 | -16.32789 | 3053 ft | 132 kts | 106° |
| 2026-04-29 17:05 | 28.47561 | -16.31801 | 3526 ft | 148 kts | 109° |
| 2026-04-29 17:05 | 28.47118 | -16.30640 | 3626 ft | 173 kts | 111° |
| 2026-04-29 17:05 | 28.46581 | -16.29330 | 3872 ft | 187 kts | 112° |
| 2026-04-29 17:06 | 28.46023 | -16.27963 | 4231 ft | 192 kts | 112° |
| 2026-04-29 17:06 | 28.45471 | -16.26587 | 4701 ft | 191 kts | 111° |
| 2026-04-29 17:06 | 28.44928 | -16.25204 | 5117 ft | 191 kts | 111° |
| 2026-04-29 17:06 | 28.44400 | -16.23817 | 5521 ft | 191 kts | 110° |
| 2026-04-29 17:07 | 28.43881 | -16.22425 | 5917 ft | 191 kts | 110° |
| 2026-04-29 17:07 | 28.43540 | -16.21500 | 6198 ft | 192 kts | 109° |
| 2026-04-29 17:07 | 28.42855 | -16.19654 | 6692 ft | 192 kts | 109° |
| 2026-04-29 17:07 | 28.42332 | -16.18247 | 7030 ft | 194 kts | 110° |
| 2026-04-29 17:08 | 28.41799 | -16.16831 | 7355 ft | 196 kts | 110° |
| 2026-04-29 17:08 | 28.41255 | -16.15403 | 7683 ft | 197 kts | 110° |
| 2026-04-29 17:08 | 28.40707 | -16.13969 | 8004 ft | 199 kts | 110° |
| 2026-04-29 17:08 | 28.40155 | -16.12523 | 8324 ft | 200 kts | 110° |
| 2026-04-29 17:09 | 28.39604 | -16.11079 | 8634 ft | 202 kts | 110° |
| 2026-04-29 17:09 | 28.39046 | -16.09605 | 8948 ft | 203 kts | 110° |
| 2026-04-29 17:09 | 28.38482 | -16.08128 | 9268 ft | 204 kts | 110° |
| 2026-04-29 17:09 | 28.37920 | -16.06641 | 9562 ft | 206 kts | 110° |
| 2026-04-29 17:10 | 28.37350 | -16.05140 | 9849 ft | 207 kts | 111° |
| 2026-04-29 17:10 | 28.36773 | -16.03630 | 10113 ft | 209 kts | 110° |
| 2026-04-29 17:10 | 28.36194 | -16.02110 | 10382 ft | 210 kts | 111° |
| 2026-04-29 17:10 | 28.35613 | -16.00578 | 10637 ft | 212 kts | 111° |
| 2026-04-29 17:11 | 28.35028 | -15.99045 | 10872 ft | 214 kts | 111° |
| 2026-04-29 17:11 | 28.34434 | -15.97489 | 11126 ft | 215 kts | 111° |
| 2026-04-29 17:11 | 28.33839 | -15.95926 | 11380 ft | 216 kts | 111° |
| 2026-04-29 17:11 | 28.33241 | -15.94353 | 11641 ft | 217 kts | 111° |
| 2026-04-29 17:12 | 28.32642 | -15.92772 | 11893 ft | 219 kts | 112° |
| 2026-04-29 17:12 | 28.32036 | -15.91185 | 12155 ft | 220 kts | 112° |
| 2026-04-29 17:12 | 28.31425 | -15.89590 | 12404 ft | 221 kts | 112° |
| 2026-04-29 17:12 | 28.31218 | -15.89047 | 12487 ft | 221 kts | 112° |
| 2026-04-29 17:13 | 28.30197 | -15.86377 | 12907 ft | 223 kts | 113° |
| 2026-04-29 17:13 | 28.29578 | -15.84759 | 13161 ft | 224 kts | 113° |
| 2026-04-29 17:13 | 28.28957 | -15.83136 | 13395 ft | 225 kts | 113° |
| 2026-04-29 17:13 | 28.28332 | -15.81502 | 13625 ft | 226 kts | 113° |
| 2026-04-29 17:14 | 28.27915 | -15.80418 | 13780 ft | 227 kts | 113° |
| 2026-04-29 17:14 | 28.27276 | -15.78750 | 13883 ft | 234 kts | 113° |
| 2026-04-29 17:14 | 28.26395 | -15.76456 | 13937 ft | 245 kts | 113° |
| 2026-04-29 17:14 | 28.25707 | -15.74661 | 13961 ft | 251 kts | 114° |
| 2026-04-29 17:15 | 28.25240 | -15.73443 | 13968 ft | 255 kts | 113° |
| 2026-04-29 17:15 | 28.24524 | -15.71577 | 13975 ft | 260 kts | 114° |
| 2026-04-29 17:15 | 28.23794 | -15.69679 | 13976 ft | 264 kts | 113° |
| 2026-04-29 17:15 | 28.23058 | -15.67759 | 13978 ft | 267 kts | 114° |
| 2026-04-29 17:16 | 28.22310 | -15.65817 | 13975 ft | 269 kts | 114° |
| 2026-04-29 17:16 | 28.21556 | -15.63860 | 13982 ft | 271 kts | 114° |
| 2026-04-29 17:16 | 28.21056 | -15.62556 | 13980 ft | 272 kts | 114° |
| 2026-04-29 17:16 | 28.20983 | -15.62367 | 13979 ft | 272 kts | 114° |
| 2026-04-29 17:17 | 28.20406 | -15.60873 | 13985 ft | 273 kts | 114° |
| 2026-04-29 17:17 | 28.19658 | -15.58928 | 13983 ft | 274 kts | 114° |
| 2026-04-29 17:17 | 28.18895 | -15.56944 | 13982 ft | 275 kts | 114° |
| 2026-04-29 17:17 | 28.18132 | -15.54957 | 13982 ft | 275 kts | 114° |
| 2026-04-29 17:18 | 28.17241 | -15.53066 | 13986 ft | 271 kts | 130° |
| 2026-04-29 17:18 | 28.15898 | -15.51561 | 13985 ft | 272 kts | 140° |
| 2026-04-29 17:18 | 28.14470 | -15.50152 | 13988 ft | 273 kts | 141° |
| 2026-04-29 17:18 | 28.13034 | -15.48726 | 13987 ft | 275 kts | 139° |
| 2026-04-29 17:19 | 28.11631 | -15.47247 | 13989 ft | 275 kts | 137° |
| 2026-04-29 17:19 | 28.10270 | -15.45750 | 13984 ft | 275 kts | 137° |
| 2026-04-29 17:19 | 28.08863 | -15.44210 | 13768 ft | 284 kts | 137° |
| 2026-04-29 17:19 | 28.07417 | -15.42633 | 13379 ft | 291 kts | 137° |
| 2026-04-29 17:20 | 28.05990 | -15.41036 | 12980 ft | 292 kts | 136° |
| 2026-04-29 17:20 | 28.04553 | -15.39400 | 12583 ft | 293 kts | 136° |
| 2026-04-29 17:20 | 28.03110 | -15.37771 | 12194 ft | 293 kts | 136° |
| 2026-04-29 17:20 | 28.01658 | -15.36136 | 11809 ft | 293 kts | 136° |
| 2026-04-29 17:21 | 28.00226 | -15.34522 | 11434 ft | 293 kts | 136° |
| 2026-04-29 17:21 | 27.98765 | -15.32879 | 11047 ft | 293 kts | 136° |
| 2026-04-29 17:21 | 27.97311 | -15.31279 | 10658 ft | 288 kts | 141° |
| 2026-04-29 17:21 | 27.95533 | -15.30308 | 10289 ft | 283 kts | 168° |
| 2026-04-29 17:22 | 27.93613 | -15.29997 | 9936 ft | 281 kts | 178° |
| 2026-04-29 17:22 | 27.91665 | -15.30104 | 9557 ft | 280 kts | 189° |
| 2026-04-29 17:22 | 27.89737 | -15.30453 | 9166 ft | 279 kts | 192° |
| 2026-04-29 17:22 | 27.87829 | -15.30846 | 8777 ft | 279 kts | 192° |
| 2026-04-29 17:23 | 27.85920 | -15.31221 | 8402 ft | 278 kts | 191° |
| 2026-04-29 17:23 | 27.84030 | -15.31544 | 8024 ft | 277 kts | 190° |
| 2026-04-29 17:23 | 27.82119 | -15.31845 | 7659 ft | 276 kts | 190° |
| 2026-04-29 17:23 | 27.80216 | -15.32139 | 7295 ft | 275 kts | 190° |
| 2026-04-29 17:24 | 27.78360 | -15.32495 | 6933 ft | 267 kts | 198° |
| 2026-04-29 17:24 | 27.76639 | -15.33222 | 6593 ft | 262 kts | 205° |
| 2026-04-29 17:24 | 27.74971 | -15.34042 | 6258 ft | 260 kts | 205° |
| 2026-04-29 17:24 | 27.73312 | -15.34855 | 5881 ft | 258 kts | 206° |
| 2026-04-29 17:25 | 27.71899 | -15.36013 | 5488 ft | 251 kts | 234° |
| 2026-04-29 17:25 | 27.71305 | -15.37787 | 5137 ft | 245 kts | 268° |
| 2026-04-29 17:25 | 27.71672 | -15.39648 | 4802 ft | 240 kts | 295° |
| 2026-04-29 17:25 | 27.72400 | -15.41320 | 4467 ft | 240 kts | 297° |
| 2026-04-29 17:26 | 27.73286 | -15.42877 | 4115 ft | 235 kts | 317° |
| 2026-04-29 17:26 | 27.74659 | -15.43865 | 3784 ft | 235 kts | 333° |
| 2026-04-29 17:26 | 27.76145 | -15.44640 | 3450 ft | 231 kts | 336° |
| 2026-04-29 17:26 | 27.77538 | -15.45234 | 3152 ft | 198 kts | 350° |
| 2026-04-29 17:27 | 27.78820 | -15.45044 | 2875 ft | 178 kts | 15° |
| 2026-04-29 17:27 | 27.79975 | -15.44606 | 2651 ft | 177 kts | 19° |
| 2026-04-29 17:27 | 27.81150 | -15.44082 | 2387 ft | 184 kts | 21° |
| 2026-04-29 17:27 | 27.82295 | -15.43549 | 2149 ft | 165 kts | 22° |
| 2026-04-29 17:28 | 27.83308 | -15.43074 | 2014 ft | 152 kts | 21° |
| 2026-04-29 17:28 | 27.84208 | -15.42658 | 1821 ft | 131 kts | 20° |
| 2026-04-29 17:28 | 27.85030 | -15.42282 | 1633 ft | 125 kts | 20° |
| 2026-04-29 17:28 | 27.85827 | -15.41912 | 1447 ft | 124 kts | 20° |
| 2026-04-29 17:29 | 27.86609 | -15.41560 | 1261 ft | 121 kts | 20° |
| 2026-04-29 17:29 | 27.87391 | -15.41216 | 1090 ft | 121 kts | 20° |
| 2026-04-29 17:29 | 27.88170 | -15.40881 | 922 ft | 118 kts | 20° |
| 2026-04-29 17:29 | 27.88673 | -15.40669 | 803 ft | 116 kts | 21° |
| 2026-04-29 17:30 | 27.89676 | -15.40246 | 576 ft | 115 kts | 22° |
| 2026-04-29 17:30 | 27.90413 | -15.39905 | 421 ft | 113 kts | 25° |
| 2026-04-29 17:30 | 27.91136 | -15.39563 | 289 ft | 113 kts | 22° |
| 2026-04-29 17:30 | 27.91879 | -15.39244 | 132 ft | 115 kts | 24° |
| 2026-04-29 17:31 | 27.92585 | -15.38921 | 69 ft | 98 kts | 21° |
| 2026-04-29 17:31 | 27.92980 | -15.38751 | 57 ft | 38 kts | 21° |
| 2026-04-29 17:31 | 27.93177 | -15.38722 | 62 ft | 23 kts | 353° |
| 2026-04-29 17:31 | 27.93298 | -15.38740 | 68 ft | 14 kts | 351° |
| 2026-04-29 17:32 | 27.93386 | -15.38755 | 72 ft | 12 kts | 355° |
| 2026-04-29 17:32 | 27.93475 | -15.38726 | 69 ft | 16 kts | 22° |
| 2026-04-29 17:32 | 27.93572 | -15.38684 | 69 ft | 14 kts | 20° |
| 2026-04-29 17:32 | 27.93660 | -15.38644 | 73 ft | 13 kts | 21° |
| 2026-04-29 17:33 | 27.93746 | -15.38605 | 71 ft | 12 kts | 21° |
| 2026-04-29 17:33 | 27.93808 | -15.38578 | 70 ft | 4 kts | 20° |
| 2026-04-29 17:33 | 27.93823 | -15.38593 | 72 ft | 5 kts | 299° |
| 2026-04-29 17:33 | 27.93840 | -15.38640 | 71 ft | 6 kts | 291° |
| 2026-04-29 17:34 | 27.93844 | -15.38652 | 75 ft | 0 kts | 292° |